Achiotepec, Mexico

9:09 AM CST on December 08, 2016 (GMT -0600)
Tajin | | Change Station

Elev 495 ft 20.60 °N, 97.46 °W | Updated 13 minutes ago

Overcast
Overcast
73 °F
Feels Like 73 °F
N
6
Wind Variable Wind from NNW

Today
High -- | Low -- °F
--% Chance of Precip.
Yesterday
High -- | Low -- °F
Precip. -- in
Pressure 30.09 in
Visibility 1.5 miles
Clouds Mostly Cloudy 800 ft
Overcast 1200 ft
Dew Point 73 °F
Humidity 100%
Rainfall 0.07 in
Snow Depth Not available.
6:56 AM 5:52 PM
Waxing Gibbous, 64% visible
SPECI MMPA 081456Z 34005KT 1 1/2SM BR HZ BKN008 OVC012 23/23 A3009 RMK 8/6// VRB CONS -DZ INTMT
Pressure 30.09 in
Visibility 1.5 miles
Clouds Mostly Cloudy 800 ft
Overcast 1200 ft
Dew Point 73 °F
Humidity 100%
Rainfall 0.07 in
Snow Depth Not available.
6:56 AM 5:52 PM
Waxing Gibbous, 64% visible
SPECI MMPA 081456Z 34005KT 1 1/2SM BR HZ BKN008 OVC012 23/23 A3009 RMK 8/6// VRB CONS -DZ INTMT

10-Day Weather Forecast

No radar image for this location.
×

Almanac

Astronomy

Dec. 08, 2016 Rise Set
Actual Time
Civil Twilight
Nautical Twilight
Astronomical Twilight
Moon
Length of Visible Light
Length of Day
Tomorrow will be .
, % of the Moon is Illuminated

Today's Extremes

Country Highs Country Lows

Community

WunderPhotos

Upload Photos

1,956,268 photos uploaded!

WunderBlog® & News

Nearby

Air Quality

  Air Quality AQ Index Pollutant
Not available.

Snow Depth

Station Depth Elevation

Earthquake Activity

City Distance Mag. Time & Date
Minimum magnitude displayed is 2.5.

Coastal Water Temperatures

Place Temperature

Stations

Nearby Weather Stations

Station Location Temp. Windchill Dew Point Humidity Wind Precip. Elev Updated Type